sensor_id;sensor_type;location;lat;lon;timestamp;temperature;humidity
33761;DHT22;20084;47.912;19.044;2024-03-02T00:00:26;10.70;99.90
33761;DHT22;20084;47.912;19.044;2024-03-02T00:02:52;10.70;99.90
33761;DHT22;20084;47.912;19.044;2024-03-02T00:05:20;10.60;99.90
33761;DHT22;20084;47.912;19.044;2024-03-02T00:07:53;10.60;99.90
33761;DHT22;20084;47.912;19.044;2024-03-02T00:10:41;10.60;99.90
33761;DHT22;20084;47.912;19.044;2024-03-02T00:13:08;10.50;99.90
33761;DHT22;20084;47.912;19.044;2024-03-02T00:15:54;10.50;99.90
33761;DHT22;20084;47.912;19.044;2024-03-02T00:18:25;10.50;99.90
33761;DHT22;20084;47.912;19.044;2024-03-02T00:20:55;10.50;99.90
33761;DHT22;20084;47.912;19.044;2024-03-02T00:23:22;10.50;99.90
33761;DHT22;20084;47.912;19.044;2024-03-02T00:25:50;10.40;99.90
33761;DHT22;20084;47.912;19.044;2024-03-02T00:33:23;10.50;99.90
33761;DHT22;20084;47.912;19.044;2024-03-02T00:35:49;10.40;99.90
33761;DHT22;20084;47.912;19.044;2024-03-02T00:38:15;10.40;99.90
33761;DHT22;20084;47.912;19.044;2024-03-02T00:40:42;10.40;99.90
33761;DHT22;20084;47.912;19.044;2024-03-02T00:43:38;10.30;99.90
33761;DHT22;20084;47.912;19.044;2024-03-02T00:46:06;10.20;99.90
33761;DHT22;20084;47.912;19.044;2024-03-02T00:48:32;10.10;99.90
33761;DHT22;20084;47.912;19.044;2024-03-02T00:51:01;10.00;99.90
33761;DHT22;20084;47.912;19.044;2024-03-02T00:53:29;10.00;99.90
33761;DHT22;20084;47.912;19.044;2024-03-02T00:55:55;9.90;99.90
33761;DHT22;20084;47.912;19.044;2024-03-02T00:58:21;9.90;99.90
33761;DHT22;20084;47.912;19.044;2024-03-02T01:00:46;9.90;99.90
33761;DHT22;20084;47.912;19.044;2024-03-02T01:03:12;10.00;99.90
33761;DHT22;20084;47.912;19.044;2024-03-02T01:05:44;9.90;99.90
33761;DHT22;20084;47.912;19.044;2024-03-02T01:08:10;9.90;99.90
33761;DHT22;20084;47.912;19.044;2024-03-02T01:10:36;9.70;99.90
33761;DHT22;20084;47.912;19.044;2024-03-02T01:13:02;9.80;99.90
33761;DHT22;20084;47.912;19.044;2024-03-02T01:15:27;9.70;99.90
33761;DHT22;20084;47.912;19.044;2024-03-02T01:17:53;9.70;99.90
33761;DHT22;20084;47.912;19.044;2024-03-02T01:20:19;9.70;99.90
33761;DHT22;20084;47.912;19.044;2024-03-02T01:22:45;9.70;99.90
33761;DHT22;20084;47.912;19.044;2024-03-02T01:25:11;9.80;99.90
33761;DHT22;20084;47.912;19.044;2024-03-02T01:27:36;9.90;99.90
33761;DHT22;20084;47.912;19.044;2024-03-02T01:30:02;9.90;99.90
33761;DHT22;20084;47.912;19.044;2024-03-02T01:32:28;9.90;99.90
33761;DHT22;20084;47.912;19.044;2024-03-02T01:34:55;10.00;99.90
33761;DHT22;20084;47.912;19.044;2024-03-02T01:37:20;10.10;99.90
33761;DHT22;20084;47.912;19.044;2024-03-02T01:39:46;10.10;99.90
33761;DHT22;20084;47.912;19.044;2024-03-02T01:42:11;10.10;99.90
33761;DHT22;20084;47.912;19.044;2024-03-02T01:44:37;10.10;99.90
33761;DHT22;20084;47.912;19.044;2024-03-02T01:47:03;10.00;99.90
33761;DHT22;20084;47.912;19.044;2024-03-02T01:49:28;10.00;99.90
33761;DHT22;20084;47.912;19.044;2024-03-02T01:51:54;9.90;99.90
33761;DHT22;20084;47.912;19.044;2024-03-02T01:54:20;9.70;99.90
33761;DHT22;20084;47.912;19.044;2024-03-02T01:56:45;9.80;99.90
33761;DHT22;20084;47.912;19.044;2024-03-02T01:59:11;9.80;99.90
33761;DHT22;20084;47.912;19.044;2024-03-02T02:01:39;9.90;99.90
33761;DHT22;20084;47.912;19.044;2024-03-02T02:04:04;10.00;99.90
33761;DHT22;20084;47.912;19.044;2024-03-02T02:06:32;9.90;99.90
33761;DHT22;20084;47.912;19.044;2024-03-02T02:08:57;10.00;99.90
33761;DHT22;20084;47.912;19.044;2024-03-02T02:11:23;10.10;99.90
33761;DHT22;20084;47.912;19.044;2024-03-02T02:13:49;10.20;99.90
33761;DHT22;20084;47.912;19.044;2024-03-02T02:16:15;10.30;99.90
33761;DHT22;20084;47.912;19.044;2024-03-02T02:18:40;10.30;99.90
33761;DHT22;20084;47.912;19.044;2024-03-02T02:21:06;10.30;99.90
33761;DHT22;20084;47.912;19.044;2024-03-02T02:23:31;10.30;99.90
33761;DHT22;20084;47.912;19.044;2024-03-02T02:25:57;10.40;99.90
33761;DHT22;20084;47.912;19.044;2024-03-02T02:28:23;10.50;99.90
33761;DHT22;20084;47.912;19.044;2024-03-02T02:30:48;10.60;99.90
33761;DHT22;20084;47.912;19.044;2024-03-02T02:33:14;10.50;99.90
33761;DHT22;20084;47.912;19.044;2024-03-02T02:35:39;10.50;99.90
33761;DHT22;20084;47.912;19.044;2024-03-02T02:38:05;10.40;99.90
33761;DHT22;20084;47.912;19.044;2024-03-02T02:40:32;10.40;99.90
33761;DHT22;20084;47.912;19.044;2024-03-02T02:42:59;10.40;99.90
33761;DHT22;20084;47.912;19.044;2024-03-02T02:45:24;10.50;99.90
33761;DHT22;20084;47.912;19.044;2024-03-02T02:47:50;10.50;99.90
33761;DHT22;20084;47.912;19.044;2024-03-02T02:50:16;10.30;99.90
33761;DHT22;20084;47.912;19.044;2024-03-02T02:52:42;9.90;99.90
33761;DHT22;20084;47.912;19.044;2024-03-02T02:55:12;9.80;99.90
33761;DHT22;20084;47.912;19.044;2024-03-02T02:57:42;9.60;99.90
33761;DHT22;20084;47.912;19.044;2024-03-02T03:00:10;9.70;99.90
33761;DHT22;20084;47.912;19.044;2024-03-02T03:02:43;9.90;99.90
33761;DHT22;20084;47.912;19.044;2024-03-02T03:05:10;10.10;99.90
33761;DHT22;20084;47.912;19.044;2024-03-02T03:07:36;10.30;99.90
33761;DHT22;20084;47.912;19.044;2024-03-02T03:10:03;10.40;99.90
33761;DHT22;20084;47.912;19.044;2024-03-02T03:12:30;10.40;99.90
33761;DHT22;20084;47.912;19.044;2024-03-02T03:14:56;10.50;99.90
33761;DHT22;20084;47.912;19.044;2024-03-02T03:17:22;10.60;99.90
33761;DHT22;20084;47.912;19.044;2024-03-02T03:19:49;10.60;99.90
33761;DHT22;20084;47.912;19.044;2024-03-02T03:22:14;10.70;99.90
33761;DHT22;20084;47.912;19.044;2024-03-02T03:24:40;10.60;99.90
33761;DHT22;20084;47.912;19.044;2024-03-02T03:27:06;10.50;99.90
33761;DHT22;20084;47.912;19.044;2024-03-02T03:29:31;10.30;99.90
33761;DHT22;20084;47.912;19.044;2024-03-02T03:31:57;10.20;99.90
33761;DHT22;20084;47.912;19.044;2024-03-02T03:34:22;10.20;99.90
33761;DHT22;20084;47.912;19.044;2024-03-02T03:36:48;10.30;99.90
33761;DHT22;20084;47.912;19.044;2024-03-02T03:39:14;10.30;99.90
33761;DHT22;20084;47.912;19.044;2024-03-02T03:41:40;10.30;99.90
33761;DHT22;20084;47.912;19.044;2024-03-02T03:44:06;10.40;99.90
33761;DHT22;20084;47.912;19.044;2024-03-02T03:46:32;10.40;99.90
33761;DHT22;20084;47.912;19.044;2024-03-02T03:48:57;10.50;99.90
33761;DHT22;20084;47.912;19.044;2024-03-02T03:51:23;10.50;99.90
33761;DHT22;20084;47.912;19.044;2024-03-02T03:53:49;10.50;99.90
33761;DHT22;20084;47.912;19.044;2024-03-02T03:56:14;10.50;99.90
33761;DHT22;20084;47.912;19.044;2024-03-02T03:58:40;10.60;99.90
33761;DHT22;20084;47.912;19.044;2024-03-02T04:01:05;10.50;99.90
33761;DHT22;20084;47.912;19.044;2024-03-02T04:03:31;10.60;99.90
33761;DHT22;20084;47.912;19.044;2024-03-02T04:05:57;10.60;99.90
33761;DHT22;20084;47.912;19.044;2024-03-02T04:08:23;10.60;99.90
33761;DHT22;20084;47.912;19.044;2024-03-02T04:10:48;10.60;99.90
33761;DHT22;20084;47.912;19.044;2024-03-02T04:13:14;10.50;99.90
33761;DHT22;20084;47.912;19.044;2024-03-02T04:15:39;10.40;99.90
33761;DHT22;20084;47.912;19.044;2024-03-02T04:18:06;10.40;99.90
33761;DHT22;20084;47.912;19.044;2024-03-02T04:20:35;10.40;99.90
33761;DHT22;20084;47.912;19.044;2024-03-02T04:23:00;10.40;99.90
33761;DHT22;20084;47.912;19.044;2024-03-02T04:25:26;10.30;99.90
33761;DHT22;20084;47.912;19.044;2024-03-02T04:27:52;10.30;99.90
33761;DHT22;20084;47.912;19.044;2024-03-02T04:30:17;10.30;99.90
33761;DHT22;20084;47.912;19.044;2024-03-02T04:32:43;10.40;99.90
33761;DHT22;20084;47.912;19.044;2024-03-02T04:35:12;10.40;99.90
33761;DHT22;20084;47.912;19.044;2024-03-02T04:37:38;10.30;99.90
33761;DHT22;20084;47.912;19.044;2024-03-02T04:40:04;10.40;99.90
33761;DHT22;20084;47.912;19.044;2024-03-02T04:42:34;10.50;99.90
33761;DHT22;20084;47.912;19.044;2024-03-02T04:45:00;10.60;99.90
33761;DHT22;20084;47.912;19.044;2024-03-02T04:47:25;10.70;99.90
33761;DHT22;20084;47.912;19.044;2024-03-02T04:49:51;10.70;99.90
33761;DHT22;20084;47.912;19.044;2024-03-02T04:52:16;10.70;99.90
33761;DHT22;20084;47.912;19.044;2024-03-02T04:54:43;10.70;99.90
33761;DHT22;20084;47.912;19.044;2024-03-02T04:57:27;10.80;99.90
33761;DHT22;20084;47.912;19.044;2024-03-02T04:59:52;10.80;99.90
33761;DHT22;20084;47.912;19.044;2024-03-02T05:02:18;10.80;99.90
33761;DHT22;20084;47.912;19.044;2024-03-02T05:04:43;10.80;99.90
33761;DHT22;20084;47.912;19.044;2024-03-02T05:07:09;10.80;99.90
33761;DHT22;20084;47.912;19.044;2024-03-02T05:09:35;10.90;99.90
33761;DHT22;20084;47.912;19.044;2024-03-02T05:12:01;10.80;99.90
33761;DHT22;20084;47.912;19.044;2024-03-02T05:14:46;10.90;99.90
33761;DHT22;20084;47.912;19.044;2024-03-02T05:17:11;10.90;99.90
33761;DHT22;20084;47.912;19.044;2024-03-02T05:19:37;10.90;99.90
33761;DHT22;20084;47.912;19.044;2024-03-02T05:22:03;10.90;99.90
33761;DHT22;20084;47.912;19.044;2024-03-02T05:24:29;10.90;99.90
33761;DHT22;20084;47.912;19.044;2024-03-02T05:26:55;11.00;99.90
33761;DHT22;20084;47.912;19.044;2024-03-02T05:29:20;11.00;99.90
33761;DHT22;20084;47.912;19.044;2024-03-02T05:31:47;11.00;99.90
33761;DHT22;20084;47.912;19.044;2024-03-02T05:34:12;11.00;99.90
33761;DHT22;20084;47.912;19.044;2024-03-02T05:36:38;11.00;99.90
33761;DHT22;20084;47.912;19.044;2024-03-02T05:39:04;11.00;99.90
33761;DHT22;20084;47.912;19.044;2024-03-02T05:41:32;11.00;99.90
33761;DHT22;20084;47.912;19.044;2024-03-02T05:43:57;11.00;99.90
33761;DHT22;20084;47.912;19.044;2024-03-02T05:46:23;10.80;99.90
33761;DHT22;20084;47.912;19.044;2024-03-02T05:48:49;10.70;99.90
33761;DHT22;20084;47.912;19.044;2024-03-02T05:51:15;10.70;99.90
33761;DHT22;20084;47.912;19.044;2024-03-02T05:53:40;10.70;99.90
33761;DHT22;20084;47.912;19.044;2024-03-02T05:56:07;10.60;99.90
33761;DHT22;20084;47.912;19.044;2024-03-02T05:58:33;10.50;99.90
33761;DHT22;20084;47.912;19.044;2024-03-02T06:01:04;10.40;99.90
33761;DHT22;20084;47.912;19.044;2024-03-02T06:03:31;10.40;99.90
33761;DHT22;20084;47.912;19.044;2024-03-02T06:05:56;10.50;99.90
33761;DHT22;20084;47.912;19.044;2024-03-02T06:08:22;10.60;99.90
33761;DHT22;20084;47.912;19.044;2024-03-02T06:10:48;10.50;99.90
33761;DHT22;20084;47.912;19.044;2024-03-02T06:13:13;10.60;99.90
33761;DHT22;20084;47.912;19.044;2024-03-02T06:15:39;10.40;99.90
33761;DHT22;20084;47.912;19.044;2024-03-02T06:18:05;10.20;99.90
33761;DHT22;20084;47.912;19.044;2024-03-02T06:20:32;10.20;99.90
33761;DHT22;20084;47.912;19.044;2024-03-02T06:22:57;10.40;99.90
33761;DHT22;20084;47.912;19.044;2024-03-02T06:25:23;10.40;99.90
33761;DHT22;20084;47.912;19.044;2024-03-02T06:27:48;10.50;99.90
33761;DHT22;20084;47.912;19.044;2024-03-02T06:30:14;10.70;99.90
33761;DHT22;20084;47.912;19.044;2024-03-02T06:32:40;10.80;99.90
33761;DHT22;20084;47.912;19.044;2024-03-02T06:35:06;10.90;99.90
33761;DHT22;20084;47.912;19.044;2024-03-02T06:37:36;11.10;99.90
33761;DHT22;20084;47.912;19.044;2024-03-02T06:40:02;11.10;99.90
33761;DHT22;20084;47.912;19.044;2024-03-02T06:42:28;11.20;99.90
33761;DHT22;20084;47.912;19.044;2024-03-02T06:44:58;11.20;99.90
33761;DHT22;20084;47.912;19.044;2024-03-02T06:47:24;11.20;99.90
33761;DHT22;20084;47.912;19.044;2024-03-02T06:49:50;11.20;99.90
33761;DHT22;20084;47.912;19.044;2024-03-02T06:52:16;11.20;99.90
33761;DHT22;20084;47.912;19.044;2024-03-02T06:54:42;11.20;99.90
33761;DHT22;20084;47.912;19.044;2024-03-02T06:57:07;11.20;99.90
33761;DHT22;20084;47.912;19.044;2024-03-02T06:59:33;11.20;99.90
33761;DHT22;20084;47.912;19.044;2024-03-02T07:01:59;11.10;99.90
33761;DHT22;20084;47.912;19.044;2024-03-02T07:04:24;11.20;99.90
33761;DHT22;20084;47.912;19.044;2024-03-02T07:06:50;11.30;99.90
33761;DHT22;20084;47.912;19.044;2024-03-02T07:09:16;11.30;99.90
33761;DHT22;20084;47.912;19.044;2024-03-02T07:11:42;11.40;99.90
33761;DHT22;20084;47.912;19.044;2024-03-02T07:14:08;11.30;99.90
33761;DHT22;20084;47.912;19.044;2024-03-02T07:16:34;11.30;99.90
33761;DHT22;20084;47.912;19.044;2024-03-02T07:19:03;11.30;99.90
33761;DHT22;20084;47.912;19.044;2024-03-02T07:21:29;11.30;99.90
33761;DHT22;20084;47.912;19.044;2024-03-02T07:23:54;11.30;99.90
33761;DHT22;20084;47.912;19.044;2024-03-02T07:26:20;11.30;99.90
33761;DHT22;20084;47.912;19.044;2024-03-02T07:28:46;11.20;99.90
33761;DHT22;20084;47.912;19.044;2024-03-02T07:31:14;11.20;99.90
33761;DHT22;20084;47.912;19.044;2024-03-02T07:33:39;11.30;99.90
33761;DHT22;20084;47.912;19.044;2024-03-02T07:36:05;11.30;99.90
33761;DHT22;20084;47.912;19.044;2024-03-02T07:38:31;11.40;99.90
33761;DHT22;20084;47.912;19.044;2024-03-02T07:40:59;11.40;99.90
33761;DHT22;20084;47.912;19.044;2024-03-02T07:43:25;11.50;99.90
33761;DHT22;20084;47.912;19.044;2024-03-02T07:45:51;11.40;99.90
33761;DHT22;20084;47.912;19.044;2024-03-02T07:48:17;11.40;99.90
33761;DHT22;20084;47.912;19.044;2024-03-02T07:50:43;11.40;99.90
33761;DHT22;20084;47.912;19.044;2024-03-02T07:53:08;11.50;99.90
33761;DHT22;20084;47.912;19.044;2024-03-02T07:55:34;11.40;99.90
33761;DHT22;20084;47.912;19.044;2024-03-02T07:58:03;11.50;99.90
33761;DHT22;20084;47.912;19.044;2024-03-02T08:00:32;11.50;99.90
33761;DHT22;20084;47.912;19.044;2024-03-02T08:02:58;11.50;99.90
33761;DHT22;20084;47.912;19.044;2024-03-02T08:05:24;11.60;99.90
33761;DHT22;20084;47.912;19.044;2024-03-02T08:07:50;11.60;99.90
33761;DHT22;20084;47.912;19.044;2024-03-02T08:10:18;11.50;99.90
33761;DHT22;20084;47.912;19.044;2024-03-02T08:12:45;11.60;99.90
33761;DHT22;20084;47.912;19.044;2024-03-02T08:15:10;11.60;99.90
33761;DHT22;20084;47.912;19.044;2024-03-02T08:17:38;11.50;99.90
33761;DHT22;20084;47.912;19.044;2024-03-02T08:20:10;11.60;99.90
33761;DHT22;20084;47.912;19.044;2024-03-02T08:22:36;11.60;99.90
33761;DHT22;20084;47.912;19.044;2024-03-02T08:25:02;11.50;99.90
33761;DHT22;20084;47.912;19.044;2024-03-02T08:27:28;11.50;99.90
33761;DHT22;20084;47.912;19.044;2024-03-02T08:29:54;11.50;99.90
33761;DHT22;20084;47.912;19.044;2024-03-02T08:32:19;11.60;99.90
33761;DHT22;20084;47.912;19.044;2024-03-02T08:34:45;11.60;99.90
33761;DHT22;20084;47.912;19.044;2024-03-02T08:37:11;11.60;99.90
33761;DHT22;20084;47.912;19.044;2024-03-02T08:39:36;11.60;99.90
33761;DHT22;20084;47.912;19.044;2024-03-02T08:42:02;11.60;99.90
33761;DHT22;20084;47.912;19.044;2024-03-02T08:44:29;11.50;99.90
33761;DHT22;20084;47.912;19.044;2024-03-02T08:46:55;11.50;99.90
33761;DHT22;20084;47.912;19.044;2024-03-02T08:49:21;11.50;99.90
33761;DHT22;20084;47.912;19.044;2024-03-02T08:51:47;11.40;99.90
33761;DHT22;20084;47.912;19.044;2024-03-02T08:54:21;11.40;99.90
33761;DHT22;20084;47.912;19.044;2024-03-02T08:56:47;11.50;99.90
33761;DHT22;20084;47.912;19.044;2024-03-02T08:59:13;11.50;99.90
33761;DHT22;20084;47.912;19.044;2024-03-02T09:01:38;11.60;99.90
33761;DHT22;20084;47.912;19.044;2024-03-02T09:04:07;11.60;99.90
33761;DHT22;20084;47.912;19.044;2024-03-02T09:06:34;11.50;99.90
33761;DHT22;20084;47.912;19.044;2024-03-02T09:09:00;11.40;99.90
33761;DHT22;20084;47.912;19.044;2024-03-02T09:11:26;11.40;99.90
33761;DHT22;20084;47.912;19.044;2024-03-02T09:13:52;11.40;99.90
33761;DHT22;20084;47.912;19.044;2024-03-02T09:16:18;11.50;99.90
33761;DHT22;20084;47.912;19.044;2024-03-02T09:18:44;11.50;99.90
33761;DHT22;20084;47.912;19.044;2024-03-02T09:21:10;11.60;99.90
33761;DHT22;20084;47.912;19.044;2024-03-02T09:23:36;11.60;99.90
33761;DHT22;20084;47.912;19.044;2024-03-02T09:26:01;11.60;99.90
33761;DHT22;20084;47.912;19.044;2024-03-02T09:28:28;11.70;99.90
33761;DHT22;20084;47.912;19.044;2024-03-02T09:30:54;11.70;99.90
33761;DHT22;20084;47.912;19.044;2024-03-02T09:33:19;11.70;99.90
33761;DHT22;20084;47.912;19.044;2024-03-02T09:35:45;11.70;99.90
33761;DHT22;20084;47.912;19.044;2024-03-02T09:38:11;11.70;99.90
33761;DHT22;20084;47.912;19.044;2024-03-02T09:40:36;11.70;99.90
33761;DHT22;20084;47.912;19.044;2024-03-02T09:43:03;11.70;99.90
33761;DHT22;20084;47.912;19.044;2024-03-02T09:45:30;11.60;99.90
33761;DHT22;20084;47.912;19.044;2024-03-02T09:47:55;11.60;99.90
33761;DHT22;20084;47.912;19.044;2024-03-02T09:50:21;11.60;99.90
33761;DHT22;20084;47.912;19.044;2024-03-02T09:52:48;11.50;99.90
33761;DHT22;20084;47.912;19.044;2024-03-02T09:55:15;11.60;99.90
33761;DHT22;20084;47.912;19.044;2024-03-02T09:57:41;11.70;99.90
33761;DHT22;20084;47.912;19.044;2024-03-02T10:00:08;11.70;99.90
33761;DHT22;20084;47.912;19.044;2024-03-02T10:02:34;11.70;99.90
33761;DHT22;20084;47.912;19.044;2024-03-02T10:05:00;11.70;99.90
33761;DHT22;20084;47.912;19.044;2024-03-02T10:07:25;11.80;99.90
33761;DHT22;20084;47.912;19.044;2024-03-02T10:09:51;11.80;99.90
33761;DHT22;20084;47.912;19.044;2024-03-02T10:12:19;11.80;99.90
33761;DHT22;20084;47.912;19.044;2024-03-02T10:14:45;11.80;99.90
33761;DHT22;20084;47.912;19.044;2024-03-02T10:17:14;11.90;99.90
33761;DHT22;20084;47.912;19.044;2024-03-02T10:19:42;11.90;99.90
33761;DHT22;20084;47.912;19.044;2024-03-02T10:22:09;11.80;99.90
33761;DHT22;20084;47.912;19.044;2024-03-02T10:24:44;11.70;99.90
33761;DHT22;20084;47.912;19.044;2024-03-02T10:27:19;11.80;99.90
33761;DHT22;20084;47.912;19.044;2024-03-02T10:29:48;11.90;99.90
33761;DHT22;20084;47.912;19.044;2024-03-02T10:32:14;12.00;99.90
33761;DHT22;20084;47.912;19.044;2024-03-02T10:34:40;12.00;99.90
33761;DHT22;20084;47.912;19.044;2024-03-02T10:37:06;12.00;99.90
33761;DHT22;20084;47.912;19.044;2024-03-02T10:39:35;12.00;99.90
33761;DHT22;20084;47.912;19.044;2024-03-02T10:42:02;12.00;99.90
33761;DHT22;20084;47.912;19.044;2024-03-02T10:44:30;12.10;99.90
33761;DHT22;20084;47.912;19.044;2024-03-02T10:46:56;12.10;99.90
33761;DHT22;20084;47.912;19.044;2024-03-02T10:49:26;12.10;99.90
33761;DHT22;20084;47.912;19.044;2024-03-02T10:51:53;12.10;99.90
33761;DHT22;20084;47.912;19.044;2024-03-02T10:54:18;12.10;99.90
33761;DHT22;20084;47.912;19.044;2024-03-02T10:56:44;12.10;99.90
33761;DHT22;20084;47.912;19.044;2024-03-02T10:59:23;12.00;99.90
33761;DHT22;20084;47.912;19.044;2024-03-02T11:01:50;12.00;99.90
33761;DHT22;20084;47.912;19.044;2024-03-02T11:04:19;12.10;99.90
33761;DHT22;20084;47.912;19.044;2024-03-02T11:06:50;12.10;99.90
33761;DHT22;20084;47.912;19.044;2024-03-02T11:09:19;12.20;99.90
33761;DHT22;20084;47.912;19.044;2024-03-02T11:11:49;12.30;99.90
33761;DHT22;20084;47.912;19.044;2024-03-02T11:14:17;12.20;99.90
33761;DHT22;20084;47.912;19.044;2024-03-02T11:16:45;12.10;99.90
33761;DHT22;20084;47.912;19.044;2024-03-02T11:19:13;12.10;99.90
33761;DHT22;20084;47.912;19.044;2024-03-02T11:21:41;12.10;99.90
33761;DHT22;20084;47.912;19.044;2024-03-02T11:24:30;12.00;99.90
33761;DHT22;20084;47.912;19.044;2024-03-02T11:26:59;12.00;99.90
33761;DHT22;20084;47.912;19.044;2024-03-02T11:32:21;12.10;99.90
33761;DHT22;20084;47.912;19.044;2024-03-02T11:34:50;12.10;99.90
33761;DHT22;20084;47.912;19.044;2024-03-02T11:37:17;12.20;99.90
33761;DHT22;20084;47.912;19.044;2024-03-02T11:39:49;12.20;99.90
33761;DHT22;20084;47.912;19.044;2024-03-02T11:42:15;12.20;99.90
33761;DHT22;20084;47.912;19.044;2024-03-02T11:44:44;12.30;99.90
33761;DHT22;20084;47.912;19.044;2024-03-02T11:47:11;12.30;99.90
33761;DHT22;20084;47.912;19.044;2024-03-02T11:49:41;12.30;99.90
33761;DHT22;20084;47.912;19.044;2024-03-02T11:52:09;12.30;99.90
33761;DHT22;20084;47.912;19.044;2024-03-02T11:54:37;12.20;99.90
33761;DHT22;20084;47.912;19.044;2024-03-02T11:57:07;12.10;99.90
33761;DHT22;20084;47.912;19.044;2024-03-02T11:59:33;12.20;99.90
33761;DHT22;20084;47.912;19.044;2024-03-02T12:01:59;12.20;99.90
33761;DHT22;20084;47.912;19.044;2024-03-02T12:04:26;12.30;99.90
33761;DHT22;20084;47.912;19.044;2024-03-02T12:06:55;12.30;99.90
33761;DHT22;20084;47.912;19.044;2024-03-02T12:09:22;12.30;99.90
33761;DHT22;20084;47.912;19.044;2024-03-02T12:11:47;12.20;99.90
33761;DHT22;20084;47.912;19.044;2024-03-02T12:14:13;12.30;99.90
33761;DHT22;20084;47.912;19.044;2024-03-02T12:16:39;12.30;99.90
33761;DHT22;20084;47.912;19.044;2024-03-02T12:19:08;12.30;99.90
33761;DHT22;20084;47.912;19.044;2024-03-02T12:21:34;12.30;99.90
33761;DHT22;20084;47.912;19.044;2024-03-02T12:24:00;12.40;99.90
33761;DHT22;20084;47.912;19.044;2024-03-02T12:26:26;12.40;99.90
33761;DHT22;20084;47.912;19.044;2024-03-02T12:28:52;12.40;99.90
33761;DHT22;20084;47.912;19.044;2024-03-02T12:31:18;12.40;99.90
33761;DHT22;20084;47.912;19.044;2024-03-02T12:33:44;12.50;99.90
33761;DHT22;20084;47.912;19.044;2024-03-02T12:36:10;12.40;99.90
33761;DHT22;20084;47.912;19.044;2024-03-02T12:38:37;12.50;99.90
33761;DHT22;20084;47.912;19.044;2024-03-02T12:41:08;12.50;99.90
33761;DHT22;20084;47.912;19.044;2024-03-02T12:43:35;12.50;99.90
33761;DHT22;20084;47.912;19.044;2024-03-02T12:46:00;12.40;99.90
33761;DHT22;20084;47.912;19.044;2024-03-02T12:48:26;12.40;99.90
33761;DHT22;20084;47.912;19.044;2024-03-02T12:50:52;12.30;99.90
33761;DHT22;20084;47.912;19.044;2024-03-02T12:53:18;12.40;99.90
33761;DHT22;20084;47.912;19.044;2024-03-02T12:55:44;12.30;99.90
33761;DHT22;20084;47.912;19.044;2024-03-02T12:58:18;12.30;99.90
33761;DHT22;20084;47.912;19.044;2024-03-02T13:00:44;12.30;99.90
33761;DHT22;20084;47.912;19.044;2024-03-02T13:03:09;12.30;99.90
33761;DHT22;20084;47.912;19.044;2024-03-02T13:05:36;12.30;99.90
33761;DHT22;20084;47.912;19.044;2024-03-02T13:08:02;12.30;99.90
33761;DHT22;20084;47.912;19.044;2024-03-02T13:10:30;12.20;99.90
33761;DHT22;20084;47.912;19.044;2024-03-02T13:12:56;12.30;99.90
33761;DHT22;20084;47.912;19.044;2024-03-02T13:15:22;12.30;99.90
33761;DHT22;20084;47.912;19.044;2024-03-02T13:17:47;12.30;99.90
33761;DHT22;20084;47.912;19.044;2024-03-02T13:20:14;12.30;99.90
33761;DHT22;20084;47.912;19.044;2024-03-02T13:22:40;12.30;99.90
33761;DHT22;20084;47.912;19.044;2024-03-02T13:25:07;12.30;99.90
33761;DHT22;20084;47.912;19.044;2024-03-02T13:27:36;12.30;99.90
33761;DHT22;20084;47.912;19.044;2024-03-02T13:30:02;12.20;99.90
33761;DHT22;20084;47.912;19.044;2024-03-02T13:32:28;12.30;99.90
33761;DHT22;20084;47.912;19.044;2024-03-02T13:34:54;12.20;99.90
33761;DHT22;20084;47.912;19.044;2024-03-02T13:37:23;12.10;99.90
33761;DHT22;20084;47.912;19.044;2024-03-02T13:39:49;12.20;99.90
33761;DHT22;20084;47.912;19.044;2024-03-02T13:42:15;12.20;99.90
33761;DHT22;20084;47.912;19.044;2024-03-02T13:44:44;12.10;99.90
33761;DHT22;20084;47.912;19.044;2024-03-02T13:47:12;12.10;99.90
33761;DHT22;20084;47.912;19.044;2024-03-02T13:49:38;12.10;99.90
33761;DHT22;20084;47.912;19.044;2024-03-02T13:52:09;12.10;99.90
33761;DHT22;20084;47.912;19.044;2024-03-02T13:54:43;12.10;99.90
33761;DHT22;20084;47.912;19.044;2024-03-02T13:57:10;12.00;99.90
33761;DHT22;20084;47.912;19.044;2024-03-02T13:59:36;12.00;99.90
33761;DHT22;20084;47.912;19.044;2024-03-02T14:02:03;12.00;99.90
33761;DHT22;20084;47.912;19.044;2024-03-02T14:04:35;12.00;99.90
33761;DHT22;20084;47.912;19.044;2024-03-02T14:07:01;11.90;99.90
33761;DHT22;20084;47.912;19.044;2024-03-02T14:09:27;12.00;99.90
33761;DHT22;20084;47.912;19.044;2024-03-02T14:11:53;12.00;99.90
33761;DHT22;20084;47.912;19.044;2024-03-02T14:14:19;12.00;99.90
33761;DHT22;20084;47.912;19.044;2024-03-02T14:16:45;12.00;99.90
33761;DHT22;20084;47.912;19.044;2024-03-02T14:19:12;12.10;99.90
33761;DHT22;20084;47.912;19.044;2024-03-02T14:21:38;12.10;99.90
33761;DHT22;20084;47.912;19.044;2024-03-02T14:24:04;12.20;99.90
33761;DHT22;20084;47.912;19.044;2024-03-02T14:26:30;12.20;99.90
33761;DHT22;20084;47.912;19.044;2024-03-02T14:28:56;12.20;99.90
33761;DHT22;20084;47.912;19.044;2024-03-02T14:31:21;12.20;99.90
33761;DHT22;20084;47.912;19.044;2024-03-02T14:33:47;12.10;99.90
33761;DHT22;20084;47.912;19.044;2024-03-02T14:36:13;12.10;99.90
33761;DHT22;20084;47.912;19.044;2024-03-02T14:38:39;12.10;99.90
33761;DHT22;20084;47.912;19.044;2024-03-02T14:41:04;12.10;99.90
33761;DHT22;20084;47.912;19.044;2024-03-02T14:43:30;12.10;99.90
33761;DHT22;20084;47.912;19.044;2024-03-02T14:45:56;12.10;99.90
33761;DHT22;20084;47.912;19.044;2024-03-02T14:48:22;12.10;99.90
33761;DHT22;20084;47.912;19.044;2024-03-02T14:50:48;12.20;99.90
33761;DHT22;20084;47.912;19.044;2024-03-02T14:53:14;12.10;99.90
33761;DHT22;20084;47.912;19.044;2024-03-02T14:55:40;12.10;99.90
33761;DHT22;20084;47.912;19.044;2024-03-02T14:58:05;12.10;99.90
33761;DHT22;20084;47.912;19.044;2024-03-02T15:00:31;12.10;99.90
33761;DHT22;20084;47.912;19.044;2024-03-02T15:02:56;12.10;99.90
33761;DHT22;20084;47.912;19.044;2024-03-02T15:05:22;12.10;99.90
33761;DHT22;20084;47.912;19.044;2024-03-02T15:07:49;12.10;99.90
33761;DHT22;20084;47.912;19.044;2024-03-02T15:10:14;12.10;99.90
33761;DHT22;20084;47.912;19.044;2024-03-02T15:12:40;12.10;99.90
33761;DHT22;20084;47.912;19.044;2024-03-02T15:15:06;12.10;99.90
33761;DHT22;20084;47.912;19.044;2024-03-02T15:17:32;12.00;99.90
33761;DHT22;20084;47.912;19.044;2024-03-02T15:19:59;12.10;99.90
33761;DHT22;20084;47.912;19.044;2024-03-02T15:22:24;12.10;99.90